createdAt,value
2018-03-08T00:01:09.435Z,5.90
2018-03-08T00:03:37.101Z,5.80
2018-03-08T00:06:04.655Z,5.80
2018-03-08T00:08:32.253Z,5.80
2018-03-08T00:10:59.884Z,5.70
2018-03-08T00:13:27.450Z,5.70
2018-03-08T00:15:55.027Z,5.80
2018-03-08T00:18:22.640Z,5.70
2018-03-08T00:20:50.204Z,5.80
2018-03-08T00:23:17.794Z,5.70
2018-03-08T00:25:45.445Z,5.70
2018-03-08T00:28:13.048Z,5.70
2018-03-08T00:30:41.437Z,5.70
2018-03-08T00:33:09.015Z,5.70
2018-03-08T00:35:36.633Z,5.70
2018-03-08T00:38:04.158Z,5.60
2018-03-08T00:40:31.749Z,5.60
2018-03-08T00:42:59.332Z,5.60
2018-03-08T00:45:26.995Z,5.60
2018-03-08T00:47:55.398Z,5.60
2018-03-08T00:50:22.963Z,5.60
2018-03-08T00:52:50.570Z,5.50
2018-03-08T00:55:18.110Z,5.50
2018-03-08T00:57:45.752Z,5.40
2018-03-08T01:00:13.372Z,5.30
2018-03-08T01:02:41.733Z,5.30
2018-03-08T01:05:09.996Z,5.20
2018-03-08T01:07:38.011Z,5.20
2018-03-08T01:10:05.677Z,5.20
2018-03-08T01:12:33.248Z,5.20
2018-03-08T01:15:00.840Z,5.20
2018-03-08T01:17:28.385Z,5.20
2018-03-08T01:19:55.995Z,5.30
2018-03-08T01:22:24.320Z,5.20
2018-03-08T01:24:52.651Z,5.20
2018-03-08T01:27:20.964Z,5.20
2018-03-08T01:29:48.554Z,5.20
2018-03-08T01:32:16.116Z,5.30
2018-03-08T01:34:43.704Z,5.20
2018-03-08T01:37:11.354Z,5.20
2018-03-08T01:39:38.924Z,5.00
2018-03-08T01:42:07.264Z,5.30
2018-03-08T01:44:34.832Z,5.30
2018-03-08T01:47:02.860Z,5.20
2018-03-08T01:49:30.469Z,5.30
2018-03-08T01:52:10.852Z,5.30
2018-03-08T01:54:38.473Z,5.30
2018-03-08T01:57:06.056Z,5.30
2018-03-08T01:59:33.625Z,5.30
2018-03-08T02:02:01.250Z,5.30
2018-03-08T02:04:28.857Z,5.30
2018-03-08T02:06:56.449Z,5.40
2018-03-08T02:09:24.055Z,5.30
2018-03-08T02:11:52.741Z,5.30
2018-03-08T02:14:20.332Z,5.40
2018-03-08T02:16:47.896Z,5.40
2018-03-08T02:19:16.248Z,5.40
2018-03-08T02:21:43.804Z,5.40
2018-03-08T02:24:11.365Z,5.40
2018-03-08T02:26:38.931Z,5.40
2018-03-08T02:29:06.509Z,5.50
2018-03-08T02:31:35.067Z,5.50
2018-03-08T02:34:03.140Z,5.50
2018-03-08T02:36:30.720Z,5.60
2018-03-08T02:38:58.273Z,5.60
2018-03-08T02:41:25.918Z,5.60
2018-03-08T02:43:53.552Z,5.60
2018-03-08T02:46:21.150Z,5.60
2018-03-08T02:48:48.702Z,5.50
2018-03-08T02:51:16.260Z,5.40
2018-03-08T02:53:43.827Z,5.40
2018-03-08T02:56:11.461Z,5.50
2018-03-08T02:58:39.028Z,5.50
2018-03-08T03:01:06.588Z,5.40
2018-03-08T03:03:34.200Z,5.50
2018-03-08T03:06:01.840Z,5.50
2018-03-08T03:08:30.157Z,5.60
2018-03-08T03:10:57.721Z,5.60
2018-03-08T03:13:25.274Z,5.70
2018-03-08T03:15:52.865Z,5.60
2018-03-08T03:18:20.441Z,5.70
2018-03-08T03:20:48.056Z,5.70
2018-03-08T03:23:15.665Z,5.70
2018-03-08T03:25:43.231Z,5.60
2018-03-08T03:28:11.192Z,5.60
2018-03-08T03:30:38.782Z,5.50
2018-03-08T03:33:06.394Z,5.50
2018-03-08T03:35:33.974Z,5.50
2018-03-08T03:38:01.553Z,5.60
2018-03-08T03:40:29.877Z,5.60
2018-03-08T03:42:57.471Z,5.60
2018-03-08T03:45:25.041Z,5.60
2018-03-08T03:47:53.321Z,5.50
2018-03-08T03:50:20.938Z,5.60
2018-03-08T03:52:49.181Z,5.70
2018-03-08T03:55:17.494Z,5.70
2018-03-08T03:57:45.059Z,5.60
2018-03-08T04:00:12.640Z,5.70
2018-03-08T04:02:40.223Z,5.60
2018-03-08T04:05:09.009Z,5.60
2018-03-08T04:07:37.510Z,5.60
2018-03-08T04:10:05.071Z,5.60
2018-03-08T04:12:32.649Z,5.50
2018-03-08T04:15:00.202Z,5.50
2018-03-08T04:17:28.749Z,5.50
2018-03-08T04:19:56.354Z,5.50
2018-03-08T04:22:24.005Z,5.50
2018-03-08T04:24:51.947Z,5.50
2018-03-08T04:27:19.503Z,5.60
2018-03-08T04:29:48.042Z,5.60
2018-03-08T04:32:16.688Z,5.60
2018-03-08T04:34:45.005Z,5.60
2018-03-08T04:37:12.615Z,5.60
2018-03-08T04:39:40.623Z,5.60
2018-03-08T04:42:08.218Z,5.60
2018-03-08T04:44:35.764Z,5.50
2018-03-08T04:47:03.368Z,5.50
2018-03-08T04:49:31.566Z,5.60
2018-03-08T04:51:59.173Z,5.50
2018-03-08T04:54:27.587Z,5.50
2018-03-08T04:56:55.168Z,5.50
2018-03-08T04:59:22.823Z,5.60
2018-03-08T05:01:50.457Z,5.50
2018-03-08T05:04:18.023Z,5.50
2018-03-08T05:06:45.634Z,5.50
2018-03-08T05:09:13.260Z,5.50
2018-03-08T05:11:40.873Z,5.50
2018-03-08T05:14:08.469Z,5.60
2018-03-08T05:16:35.988Z,5.50
2018-03-08T05:19:04.412Z,5.60
2018-03-08T05:21:32.035Z,5.60
2018-03-08T05:23:59.564Z,5.60
2018-03-08T05:26:27.756Z,5.70
2018-03-08T05:28:55.311Z,5.70
2018-03-08T05:31:22.927Z,5.70
2018-03-08T05:33:50.478Z,5.80
2018-03-08T05:36:18.067Z,5.80
2018-03-08T05:38:45.621Z,5.80
2018-03-08T05:41:14.040Z,5.70
2018-03-08T05:43:41.604Z,5.70
2018-03-08T05:46:09.178Z,5.60
2018-03-08T05:48:36.810Z,5.70
2018-03-08T05:51:05.113Z,5.70
2018-03-08T05:53:32.690Z,5.70
2018-03-08T05:56:00.241Z,5.60
2018-03-08T05:58:27.853Z,5.60
2018-03-08T06:00:55.425Z,5.70
2018-03-08T06:03:23.621Z,5.60
2018-03-08T06:05:51.221Z,5.60
2018-03-08T06:08:18.812Z,5.70
2018-03-08T06:10:46.344Z,5.60
2018-03-08T06:13:13.945Z,5.70
2018-03-08T06:15:41.502Z,5.70
2018-03-08T06:18:09.079Z,5.70
2018-03-08T06:20:36.644Z,5.80
2018-03-08T06:23:04.241Z,5.80
2018-03-08T06:25:31.860Z,5.70
2018-03-08T06:27:59.471Z,5.70
2018-03-08T06:30:27.073Z,5.80
2018-03-08T06:32:54.665Z,5.80
2018-03-08T06:35:23.200Z,5.80
2018-03-08T06:37:50.832Z,5.80
2018-03-08T06:40:18.660Z,5.90
2018-03-08T06:42:46.225Z,5.80
2018-03-08T06:45:13.919Z,5.80
2018-03-08T06:47:42.253Z,5.70
2018-03-08T06:50:10.162Z,5.70
2018-03-08T06:52:37.783Z,5.60
2018-03-08T06:55:05.352Z,5.60
2018-03-08T06:57:32.952Z,5.50
2018-03-08T07:00:01.267Z,5.60
2018-03-08T07:02:28.921Z,5.60
2018-03-08T07:04:56.546Z,5.60
2018-03-08T07:07:24.166Z,5.60
2018-03-08T07:09:51.854Z,5.40
2018-03-08T07:12:20.312Z,5.30
2018-03-08T07:14:48.400Z,5.30
2018-03-08T07:17:16.531Z,5.20
2018-03-08T07:19:44.087Z,5.20
2018-03-08T07:22:12.378Z,5.20
2018-03-08T07:24:40.010Z,5.20
2018-03-08T07:27:08.311Z,5.30
2018-03-08T07:29:35.887Z,5.30
2018-03-08T07:32:03.540Z,5.30
2018-03-08T07:34:31.108Z,5.30
2018-03-08T07:36:58.685Z,5.30
2018-03-08T07:39:26.633Z,5.40
2018-03-08T07:41:54.635Z,5.30
2018-03-08T07:44:22.234Z,5.40
2018-03-08T07:46:49.846Z,5.50
2018-03-08T07:49:17.469Z,5.40
2018-03-08T07:51:45.082Z,5.50
2018-03-08T07:54:12.596Z,5.40
2018-03-08T07:56:40.151Z,5.50
2018-03-08T07:59:07.702Z,5.60
2018-03-08T08:01:36.682Z,5.70
2018-03-08T08:04:04.909Z,5.70
2018-03-08T08:06:45.020Z,5.80
2018-03-08T08:09:12.612Z,5.80
2018-03-08T08:11:40.143Z,5.90
2018-03-08T08:14:07.701Z,6.00
2018-03-08T08:16:35.316Z,5.90
2018-03-08T08:19:02.965Z,6.00
2018-03-08T08:21:30.532Z,6.00
2018-03-08T08:23:58.132Z,6.00
2018-03-08T08:26:25.798Z,6.00
2018-03-08T08:28:54.172Z,6.10
2018-03-08T08:31:22.496Z,6.20
2018-03-08T08:33:50.014Z,6.20
2018-03-08T08:36:18.332Z,6.30
2018-03-08T08:38:45.911Z,6.30
2018-03-08T08:41:13.444Z,6.30
2018-03-08T08:43:41.063Z,6.40
2018-03-08T08:46:08.770Z,6.50
2018-03-08T08:48:36.332Z,6.50
2018-03-08T08:51:03.971Z,6.60
2018-03-08T08:53:32.305Z,6.70
2018-03-08T08:55:59.941Z,6.60
2018-03-08T08:58:27.677Z,6.80
2018-03-08T09:00:56.026Z,7.00
2018-03-08T09:03:23.546Z,7.00
2018-03-08T09:05:51.108Z,7.20
2018-03-08T09:08:18.932Z,7.20
2018-03-08T09:10:47.256Z,7.40
2018-03-08T09:13:14.806Z,7.40
2018-03-08T09:15:42.335Z,7.40
2018-03-08T09:18:10.753Z,7.50
2018-03-08T09:20:38.306Z,7.60
2018-03-08T09:23:05.957Z,7.70
2018-03-08T09:25:33.768Z,7.80
2018-03-08T09:28:01.371Z,7.80
2018-03-08T09:30:28.898Z,8.00
2018-03-08T09:32:56.612Z,8.20
2018-03-08T09:35:24.274Z,8.30
2018-03-08T09:37:51.837Z,8.30
2018-03-08T09:40:19.400Z,8.30
2018-03-08T09:42:47.012Z,8.30
2018-03-08T09:45:14.552Z,8.40
2018-03-08T09:47:42.110Z,8.40
2018-03-08T09:50:09.727Z,8.30
2018-03-08T09:52:37.414Z,8.40
2018-03-08T09:55:05.021Z,8.30
2018-03-08T09:57:33.384Z,8.60
2018-03-08T10:00:00.966Z,8.60
2018-03-08T10:02:29.270Z,8.90
2018-03-08T10:04:56.843Z,8.80
2018-03-08T10:07:24.529Z,8.80
2018-03-08T10:09:52.073Z,9.00
2018-03-08T10:12:19.641Z,8.90
2018-03-08T10:14:47.192Z,8.90
2018-03-08T10:17:14.737Z,9.00
2018-03-08T10:19:42.291Z,9.10
2018-03-08T10:22:09.960Z,9.00
2018-03-08T10:24:38.150Z,9.00
2018-03-08T10:27:05.692Z,9.00
2018-03-08T10:29:34.149Z,8.90
2018-03-08T10:32:02.501Z,9.10
2018-03-08T10:34:30.097Z,9.10
2018-03-08T10:36:57.621Z,9.30
2018-03-08T10:41:52.743Z,9.50
2018-03-08T10:44:20.337Z,9.40
2018-03-08T10:46:48.025Z,9.40
2018-03-08T10:49:15.636Z,9.40
2018-03-08T10:51:44.029Z,9.40
2018-03-08T10:54:11.715Z,9.40
2018-03-08T10:56:39.246Z,9.30
2018-03-08T10:59:07.558Z,9.30
2018-03-08T11:01:36.583Z,9.30
2018-03-08T11:04:09.749Z,9.40
2018-03-08T11:06:37.281Z,9.50
2018-03-08T11:09:04.879Z,9.40
2018-03-08T11:11:32.420Z,9.20
2018-03-08T11:13:59.979Z,9.20
2018-03-08T11:16:27.523Z,9.20
2018-03-08T11:18:55.075Z,9.20
2018-03-08T11:21:23.392Z,9.20
2018-03-08T11:23:51.861Z,9.20
2018-03-08T11:26:19.456Z,9.20
2018-03-08T11:28:47.065Z,9.20
2018-03-08T11:31:14.626Z,9.30
2018-03-08T11:33:42.175Z,9.40
2018-03-08T11:36:10.885Z,9.20
2018-03-08T11:38:38.556Z,9.10
2018-03-08T11:41:06.213Z,9.00
2018-03-08T11:43:33.757Z,9.20
2018-03-08T11:46:01.329Z,9.40
2018-03-08T11:48:28.877Z,9.50
2018-03-08T11:50:57.759Z,9.50
2018-03-08T11:53:24.106Z,9.60
2018-03-08T11:55:51.689Z,9.60
2018-03-08T11:58:20.235Z,9.60
2018-03-08T12:00:48.558Z,9.70
2018-03-08T12:03:16.105Z,9.70
2018-03-08T12:05:43.681Z,9.90
2018-03-08T12:08:11.559Z,10.10
2018-03-08T12:10:39.138Z,10.10
2018-03-08T12:13:06.711Z,10.00
2018-03-08T12:15:35.237Z,10.00
2018-03-08T12:18:02.861Z,10.00
2018-03-08T12:20:32.008Z,10.10
2018-03-08T12:22:59.746Z,10.10
2018-03-08T12:25:27.346Z,10.10
2018-03-08T12:27:55.034Z,10.10
2018-03-08T12:30:22.664Z,10.00
2018-03-08T12:32:50.242Z,9.80
2018-03-08T12:35:17.811Z,9.70
2018-03-08T12:37:45.429Z,9.70
2018-03-08T12:40:13.879Z,9.60
2018-03-08T12:42:41.455Z,9.50
2018-03-08T12:45:09.029Z,9.50
2018-03-08T12:47:36.563Z,9.60
2018-03-08T12:50:04.149Z,9.60
2018-03-08T12:52:32.510Z,9.50
2018-03-08T12:55:00.075Z,9.50
2018-03-08T12:57:28.397Z,9.50
2018-03-08T12:59:55.969Z,9.50
2018-03-08T13:02:23.616Z,9.50
2018-03-08T13:04:51.251Z,9.50
2018-03-08T13:07:19.461Z,9.40
2018-03-08T13:09:47.090Z,9.40
2018-03-08T13:12:14.662Z,9.40
2018-03-08T13:14:42.218Z,9.40
2018-03-08T13:17:09.773Z,9.40
2018-03-08T13:19:37.396Z,9.20
2018-03-08T13:22:05.715Z,9.00
2018-03-08T13:24:33.271Z,9.00
2018-03-08T13:27:00.830Z,8.90
2018-03-08T13:29:28.394Z,8.80
2018-03-08T13:31:56.005Z,8.70
2018-03-08T13:34:23.834Z,8.60
2018-03-08T13:36:51.384Z,8.50
2018-03-08T13:39:19.037Z,8.50
2018-03-08T13:41:46.586Z,8.40
2018-03-08T13:44:14.093Z,8.40
2018-03-08T13:46:41.759Z,8.30
2018-03-08T13:49:22.356Z,8.20
2018-03-08T13:51:50.016Z,8.10
2018-03-08T13:54:17.638Z,8.00
2018-03-08T13:56:45.200Z,8.00
2018-03-08T13:59:12.769Z,7.90
2018-03-08T14:01:40.306Z,7.90
2018-03-08T14:04:08.158Z,7.70
2018-03-08T14:06:36.527Z,7.60
2018-03-08T14:09:04.133Z,7.60
2018-03-08T14:11:31.662Z,7.50
2018-03-08T14:13:59.700Z,7.40
2018-03-08T14:16:27.275Z,7.40
2018-03-08T14:18:54.805Z,7.30
2018-03-08T14:21:22.364Z,7.30
2018-03-08T14:23:49.924Z,7.40
2018-03-08T14:26:18.369Z,7.30
2018-03-08T14:28:45.937Z,7.30
2018-03-08T14:31:13.832Z,7.40
2018-03-08T14:33:41.364Z,7.40
2018-03-08T14:36:08.976Z,7.30
2018-03-08T14:38:36.774Z,7.30
2018-03-08T14:41:04.350Z,7.20
2018-03-08T14:43:31.928Z,7.20
2018-03-08T14:45:59.470Z,7.20
2018-03-08T14:48:27.020Z,7.10
2018-03-08T14:50:54.703Z,7.10
2018-03-08T14:53:22.259Z,7.20
2018-03-08T14:55:49.824Z,7.10
2018-03-08T14:58:18.207Z,7.10
2018-03-08T15:00:46.736Z,7.10
2018-03-08T15:03:14.354Z,7.00
2018-03-08T15:05:41.910Z,6.90
2018-03-08T15:08:09.550Z,6.80
2018-03-08T15:10:37.144Z,6.80
2018-03-08T15:13:04.699Z,6.80
2018-03-08T15:15:32.978Z,6.80
2018-03-08T15:18:01.472Z,6.90
2018-03-08T15:20:29.771Z,6.90
2018-03-08T15:22:57.447Z,6.90
2018-03-08T15:25:26.383Z,6.90
2018-03-08T15:27:54.836Z,7.00
2018-03-08T15:30:22.361Z,7.00
2018-03-08T15:32:50.704Z,7.00
2018-03-08T15:35:19.349Z,7.10
2018-03-08T15:37:46.916Z,7.00
2018-03-08T15:40:14.561Z,7.10
2018-03-08T15:42:42.104Z,7.00
2018-03-08T15:45:09.649Z,7.00
2018-03-08T15:47:37.219Z,7.00
2018-03-08T15:50:04.741Z,7.00
2018-03-08T15:52:32.524Z,7.00
2018-03-08T15:55:00.785Z,6.90
2018-03-08T15:57:28.458Z,6.90
2018-03-08T15:59:56.024Z,6.90
2018-03-08T16:02:25.508Z,6.90
2018-03-08T16:04:53.078Z,6.90
2018-03-08T16:10:40.819Z,6.90
2018-03-08T16:13:08.375Z,6.80
2018-03-08T16:15:35.946Z,6.80
2018-03-08T16:18:03.479Z,6.80
2018-03-08T16:20:31.072Z,6.80
2018-03-08T16:22:58.619Z,6.80
2018-03-08T16:25:26.280Z,6.90
2018-03-08T16:27:53.787Z,6.80
2018-03-08T16:30:21.337Z,6.90
2018-03-08T16:32:48.904Z,6.90
2018-03-08T16:35:16.462Z,6.20
2018-03-08T16:37:44.020Z,5.40
2018-03-08T16:40:11.630Z,4.50
2018-03-08T16:42:39.192Z,4.10
2018-03-08T16:45:07.452Z,3.80
2018-03-08T16:47:35.099Z,3.60
2018-03-08T16:50:02.606Z,3.70
2018-03-08T16:52:31.163Z,3.90
2018-03-08T16:54:58.705Z,4.10
2018-03-08T16:57:26.267Z,4.20
2018-03-08T16:59:53.960Z,4.30
2018-03-08T17:02:21.509Z,4.30
2018-03-08T17:04:49.102Z,4.40
2018-03-08T17:07:17.422Z,4.30
2018-03-08T17:09:45.261Z,4.30
2018-03-08T17:12:12.778Z,4.30
2018-03-08T17:14:40.423Z,4.20
2018-03-08T17:17:08.027Z,4.30
2018-03-08T17:19:35.555Z,4.40
2018-03-08T17:22:03.119Z,4.30
2018-03-08T17:24:30.654Z,4.40
2018-03-08T17:26:58.445Z,4.40
2018-03-08T17:29:25.991Z,4.40
2018-03-08T17:31:53.612Z,4.50
2018-03-08T17:34:21.218Z,4.40
2018-03-08T17:36:48.822Z,4.50
2018-03-08T17:39:16.502Z,4.50
2018-03-08T17:41:45.098Z,4.50
2018-03-08T17:44:12.747Z,4.50
2018-03-08T17:46:41.114Z,4.60
2018-03-08T17:49:09.498Z,4.80
2018-03-08T17:51:37.321Z,4.70
2018-03-08T17:54:04.935Z,4.70
2018-03-08T17:56:32.477Z,4.80
2018-03-08T17:59:01.989Z,4.80
2018-03-08T18:01:30.347Z,4.80
2018-03-08T18:03:58.350Z,4.80
2018-03-08T18:06:25.900Z,4.90
2018-03-08T18:08:53.819Z,4.90
2018-03-08T18:11:21.400Z,4.90
2018-03-08T18:13:48.931Z,5.00
2018-03-08T18:16:17.256Z,5.10
2018-03-08T18:18:44.802Z,5.10
2018-03-08T18:21:12.358Z,5.20
2018-03-08T18:23:39.931Z,5.30
2018-03-08T18:26:08.314Z,5.40
2018-03-08T18:28:36.582Z,5.40
2018-03-08T18:31:04.930Z,5.50
2018-03-08T18:33:33.575Z,5.50
2018-03-08T18:36:01.156Z,5.40
2018-03-08T18:38:28.716Z,5.40
2018-03-08T18:40:56.277Z,5.40
2018-03-08T18:46:09.601Z,5.10
2018-03-08T18:48:37.242Z,5.00
2018-03-08T18:51:04.953Z,5.00
2018-03-08T18:53:32.582Z,4.90
2018-03-08T18:56:00.234Z,4.80
2018-03-08T18:58:28.663Z,4.80
2018-03-08T19:00:57.905Z,4.80
2018-03-08T19:03:25.456Z,4.80
2018-03-08T19:05:53.179Z,4.80
2018-03-08T19:08:21.207Z,4.80
2018-03-08T19:10:49.484Z,4.90
2018-03-08T19:13:17.935Z,4.90
2018-03-08T19:15:45.568Z,4.90
2018-03-08T19:18:13.899Z,4.80
2018-03-08T19:20:41.440Z,4.80
2018-03-08T19:23:09.087Z,4.80
2018-03-08T19:25:36.644Z,4.80
2018-03-08T19:28:04.204Z,4.70
2018-03-08T19:30:31.749Z,4.70
2018-03-08T19:32:59.327Z,4.70
2018-03-08T19:35:26.900Z,4.80
2018-03-08T19:37:55.260Z,5.00
2018-03-08T19:40:22.832Z,4.90
2018-03-08T19:42:50.431Z,5.00
2018-03-08T19:45:18.042Z,5.10
2018-03-08T19:47:45.662Z,5.10
2018-03-08T19:50:13.230Z,5.10
2018-03-08T19:52:40.817Z,5.20
2018-03-08T19:55:08.354Z,5.20
2018-03-08T19:57:35.920Z,5.20
2018-03-08T20:00:03.583Z,5.20
2018-03-08T20:02:31.204Z,5.20
2018-03-08T20:04:59.579Z,5.20
2018-03-08T20:07:27.160Z,5.20
2018-03-08T20:09:54.741Z,5.40
2018-03-08T20:12:23.034Z,5.40
2018-03-08T20:14:50.630Z,5.40
2018-03-08T20:17:19.069Z,5.60
2018-03-08T20:19:46.606Z,5.50
2018-03-08T20:22:14.176Z,5.70
2018-03-08T20:24:41.972Z,5.70
2018-03-08T20:27:09.725Z,5.70
2018-03-08T20:29:37.434Z,5.70
2018-03-08T20:32:04.991Z,5.70
2018-03-08T20:34:32.575Z,5.70
2018-03-08T20:37:00.421Z,5.80
2018-03-08T20:39:27.976Z,5.80
2018-03-08T20:41:56.299Z,5.80
2018-03-08T20:44:24.167Z,5.80
2018-03-08T20:46:51.830Z,5.80
2018-03-08T20:49:19.387Z,5.90
2018-03-08T20:51:47.167Z,5.90
2018-03-08T20:54:14.811Z,5.90
2018-03-08T20:56:42.370Z,5.90
2018-03-08T20:59:09.972Z,5.90
2018-03-08T21:01:37.668Z,5.90
2018-03-08T21:04:06.990Z,5.80
2018-03-08T21:06:34.689Z,5.80
2018-03-08T21:09:02.312Z,5.80
2018-03-08T21:11:29.885Z,5.70
2018-03-08T21:13:58.156Z,5.50
2018-03-08T21:16:26.522Z,5.50
2018-03-08T21:18:54.326Z,5.40
2018-03-08T21:21:21.959Z,5.30
2018-03-08T21:23:49.758Z,5.30
2018-03-08T21:26:18.161Z,5.20
2018-03-08T21:28:47.291Z,5.10
2018-03-08T21:31:14.906Z,5.10
2018-03-08T21:33:43.568Z,5.00
2018-03-08T21:36:11.194Z,5.00
2018-03-08T21:38:39.636Z,5.00
2018-03-08T21:41:07.564Z,5.00
2018-03-08T21:43:35.215Z,4.90
2018-03-08T21:46:03.864Z,4.90
2018-03-08T21:48:31.443Z,4.90
2018-03-08T21:50:59.244Z,4.90
2018-03-08T21:53:26.790Z,4.90
2018-03-08T21:55:54.424Z,4.90
2018-03-08T21:58:22.019Z,4.90
2018-03-08T22:00:50.300Z,4.90
2018-03-08T22:03:17.908Z,4.90
2018-03-08T22:05:45.469Z,4.90
2018-03-08T22:08:13.805Z,4.90
2018-03-08T22:10:43.038Z,4.90
2018-03-08T22:13:11.413Z,4.90
2018-03-08T22:15:38.988Z,4.80
2018-03-08T22:18:07.395Z,4.90
2018-03-08T22:20:36.875Z,4.90
2018-03-08T22:23:04.559Z,4.90
2018-03-08T22:25:32.119Z,4.90
2018-03-08T22:27:59.681Z,4.90
2018-03-08T22:30:27.215Z,4.90
2018-03-08T22:32:54.829Z,4.90
2018-03-08T22:35:22.383Z,4.90
2018-03-08T22:37:50.786Z,4.80
2018-03-08T22:40:18.652Z,4.80
2018-03-08T22:42:46.236Z,4.80
2018-03-08T22:45:14.545Z,4.80
2018-03-08T22:47:42.158Z,4.70
2018-03-08T22:50:09.732Z,4.80
2018-03-08T22:52:37.545Z,4.90
2018-03-08T22:55:05.147Z,5.00
2018-03-08T22:57:32.733Z,5.10
2018-03-08T23:00:00.375Z,5.00
2018-03-08T23:02:34.768Z,5.00
2018-03-08T23:05:02.368Z,4.90
2018-03-08T23:07:30.687Z,4.70
2018-03-08T23:09:58.568Z,4.70
2018-03-08T23:12:26.152Z,4.70
2018-03-08T23:14:54.826Z,4.60
2018-03-08T23:17:22.418Z,4.60
2018-03-08T23:19:51.667Z,4.50
2018-03-08T23:22:19.243Z,4.50
2018-03-08T23:24:46.820Z,4.50
2018-03-08T23:27:15.241Z,4.50
2018-03-08T23:29:42.789Z,4.50
2018-03-08T23:32:10.360Z,4.40
2018-03-08T23:34:37.988Z,4.50
2018-03-08T23:37:05.529Z,4.50
2018-03-08T23:39:33.107Z,4.50
2018-03-08T23:42:00.656Z,4.40
2018-03-08T23:44:29.028Z,4.30
2018-03-08T23:46:56.552Z,4.30
2018-03-08T23:49:24.103Z,4.40
2018-03-08T23:51:52.548Z,4.40
2018-03-08T23:54:20.888Z,4.40
2018-03-08T23:56:48.952Z,4.30
2018-03-08T23:59:16.705Z,4.40
